createdAt,value
2016-12-01T00:00:54.396Z,0
2016-12-01T00:02:03.077Z,0
2016-12-01T00:03:11.754Z,0
2016-12-01T00:04:20.439Z,0
2016-12-01T00:05:29.129Z,0
2016-12-01T00:06:37.812Z,0
2016-12-01T00:07:46.503Z,0
2016-12-01T00:08:55.184Z,0
2016-12-01T00:10:03.863Z,0
2016-12-01T00:11:12.544Z,0
2016-12-01T00:12:21.223Z,0
2016-12-01T00:13:29.904Z,0
2016-12-01T00:14:38.584Z,0
2016-12-01T00:15:47.264Z,0
2016-12-01T00:16:55.946Z,0
2016-12-01T00:18:04.628Z,0
2016-12-01T00:19:13.307Z,0
2016-12-01T00:20:21.989Z,0
2016-12-01T00:21:30.673Z,0
2016-12-01T00:22:39.357Z,0
2016-12-01T00:23:48.069Z,0
2016-12-01T00:24:56.753Z,0
2016-12-01T00:26:05.440Z,0
2016-12-01T00:27:14.120Z,0
2016-12-01T00:28:22.803Z,0
2016-12-01T00:29:31.486Z,0
2016-12-01T00:30:40.163Z,0
2016-12-01T00:31:48.853Z,0
2016-12-01T00:32:57.542Z,0
2016-12-01T00:34:06.226Z,0
2016-12-01T00:35:14.905Z,0
2016-12-01T00:36:23.584Z,0
2016-12-01T00:37:32.269Z,0
2016-12-01T00:38:40.951Z,0
2016-12-01T00:39:49.665Z,0
2016-12-01T00:40:58.343Z,0
2016-12-01T00:42:07.030Z,0
2016-12-01T00:43:15.714Z,0
2016-12-01T00:44:24.399Z,0
2016-12-01T00:45:33.087Z,0
2016-12-01T00:46:41.765Z,0
2016-12-01T00:47:50.442Z,0
2016-12-01T00:48:59.131Z,0
2016-12-01T00:50:07.838Z,0
2016-12-01T00:51:16.517Z,0
2016-12-01T00:52:25.512Z,0
2016-12-01T00:53:34.197Z,0
2016-12-01T00:54:42.879Z,0
2016-12-01T00:55:51.562Z,0
2016-12-01T00:57:00.234Z,0
2016-12-01T00:58:08.971Z,0
2016-12-01T00:59:17.650Z,0
2016-12-01T01:00:26.337Z,0
2016-12-01T01:01:35.040Z,0
2016-12-01T01:02:43.718Z,0
2016-12-01T01:03:52.401Z,0
2016-12-01T01:05:01.112Z,0
2016-12-01T01:06:09.794Z,0
2016-12-01T01:07:18.475Z,0
2016-12-01T01:08:27.157Z,0
2016-12-01T01:09:35.851Z,0
2016-12-01T01:10:44.528Z,0
2016-12-01T01:11:53.211Z,0
2016-12-01T01:13:01.896Z,0
2016-12-01T01:14:10.584Z,0
2016-12-01T01:15:19.265Z,0
2016-12-01T01:16:28.275Z,0
2016-12-01T01:17:36.962Z,0
2016-12-01T01:18:45.643Z,0
2016-12-01T01:19:54.325Z,0
2016-12-01T01:21:03.009Z,0
2016-12-01T01:22:11.692Z,0
2016-12-01T01:23:20.373Z,0
2016-12-01T01:24:29.059Z,0
2016-12-01T01:25:38.076Z,0
2016-12-01T01:26:46.764Z,0
2016-12-01T01:27:55.446Z,0
2016-12-01T01:29:04.139Z,0
2016-12-01T01:30:12.829Z,0
2016-12-01T01:31:21.509Z,0
2016-12-01T01:32:30.191Z,0
2016-12-01T01:33:38.875Z,0
2016-12-01T01:34:47.561Z,0
2016-12-01T01:35:56.245Z,0
2016-12-01T01:37:05.270Z,0
2016-12-01T01:38:13.949Z,0
2016-12-01T01:39:22.626Z,0
2016-12-01T01:40:31.309Z,0
2016-12-01T01:41:39.996Z,0
2016-12-01T01:42:48.681Z,0
2016-12-01T01:43:57.368Z,0
2016-12-01T01:45:06.049Z,0
2016-12-01T01:46:15.058Z,0
2016-12-01T01:47:23.740Z,0
2016-12-01T01:48:32.425Z,0
2016-12-01T01:49:41.104Z,0
2016-12-01T01:50:49.786Z,0
2016-12-01T01:51:58.467Z,0
2016-12-01T01:53:07.459Z,0
2016-12-01T01:54:16.140Z,0
2016-12-01T01:55:24.827Z,0
2016-12-01T01:56:33.510Z,0
2016-12-01T01:57:42.196Z,0
2016-12-01T01:58:50.881Z,0
2016-12-01T01:59:59.568Z,0
2016-12-01T02:01:08.252Z,0
2016-12-01T02:02:16.983Z,0
2016-12-01T02:03:25.673Z,0
2016-12-01T02:04:34.357Z,0
2016-12-01T02:05:43.038Z,0
2016-12-01T02:06:51.722Z,0
2016-12-01T02:08:00.405Z,0
2016-12-01T02:09:09.089Z,0
2016-12-01T02:10:17.771Z,0
2016-12-01T02:11:26.451Z,0
2016-12-01T02:12:35.140Z,0
2016-12-01T02:13:43.817Z,0
2016-12-01T02:14:52.501Z,0
2016-12-01T02:16:01.208Z,0
2016-12-01T02:17:09.891Z,0
2016-12-01T02:18:18.579Z,0
2016-12-01T02:19:27.262Z,0
2016-12-01T02:20:35.944Z,0
2016-12-01T02:21:44.629Z,0
2016-12-01T02:22:53.332Z,0
2016-12-01T02:24:02.014Z,0
2016-12-01T02:25:10.697Z,0
2016-12-01T02:26:19.391Z,0
2016-12-01T02:27:28.100Z,0
2016-12-01T02:28:36.796Z,0
2016-12-01T02:29:45.475Z,0
2016-12-01T02:30:54.159Z,0
2016-12-01T02:32:02.839Z,0
2016-12-01T02:33:11.527Z,0
2016-12-01T02:34:20.208Z,0
2016-12-01T02:35:28.886Z,0
2016-12-01T02:36:37.568Z,0
2016-12-01T02:37:46.249Z,0
2016-12-01T02:38:54.934Z,0
2016-12-01T02:40:03.617Z,0
2016-12-01T02:41:12.296Z,0
2016-12-01T02:42:20.978Z,0
2016-12-01T02:43:29.658Z,0
2016-12-01T02:44:38.341Z,0
2016-12-01T02:45:47.054Z,0
2016-12-01T02:46:55.737Z,0
2016-12-01T02:48:04.427Z,0
2016-12-01T02:49:13.106Z,0
2016-12-01T02:50:21.793Z,0
2016-12-01T02:51:30.477Z,0
2016-12-01T02:52:39.160Z,0
2016-12-01T02:53:47.836Z,0
2016-12-01T02:54:56.513Z,0
2016-12-01T02:56:05.193Z,0
2016-12-01T02:57:13.876Z,0
2016-12-01T02:58:22.564Z,0
2016-12-01T02:59:31.255Z,0
2016-12-01T03:00:39.947Z,0
2016-12-01T03:01:48.948Z,0
2016-12-01T03:02:57.631Z,0
2016-12-01T03:04:06.309Z,0
2016-12-01T03:05:14.998Z,0
2016-12-01T03:06:23.681Z,0
2016-12-01T03:07:32.360Z,0
2016-12-01T03:08:41.046Z,0
2016-12-01T03:09:49.727Z,0
2016-12-01T03:10:58.724Z,0
2016-12-01T03:12:07.718Z,0
2016-12-01T03:13:16.401Z,0
2016-12-01T03:14:25.084Z,0
2016-12-01T03:15:33.769Z,0
2016-12-01T03:16:42.445Z,0
2016-12-01T03:17:51.127Z,0
2016-12-01T03:18:59.812Z,0
2016-12-01T03:20:08.489Z,0
2016-12-01T03:21:17.170Z,0
2016-12-01T03:22:25.850Z,0
2016-12-01T03:23:34.535Z,0
2016-12-01T03:24:43.216Z,0
2016-12-01T03:25:51.897Z,0
2016-12-01T03:27:00.579Z,0
2016-12-01T03:28:09.260Z,0
2016-12-01T03:29:17.943Z,0
2016-12-01T03:30:26.629Z,0
2016-12-01T03:31:35.322Z,0
2016-12-01T03:32:44.019Z,0
2016-12-01T03:33:52.697Z,0
2016-12-01T03:35:01.700Z,0
2016-12-01T03:36:10.408Z,0
2016-12-01T03:37:19.089Z,0
2016-12-01T03:38:27.768Z,0
2016-12-01T03:39:36.448Z,0
2016-12-01T03:40:45.130Z,0
2016-12-01T03:41:53.812Z,0
2016-12-01T03:43:02.502Z,0
2016-12-01T03:44:11.181Z,0
2016-12-01T03:45:19.864Z,0
2016-12-01T03:46:28.579Z,0
2016-12-01T03:47:37.258Z,0
2016-12-01T03:48:45.932Z,0
2016-12-01T03:49:54.613Z,0
2016-12-01T03:51:03.298Z,0
2016-12-01T03:52:11.982Z,0
2016-12-01T03:53:20.663Z,0
2016-12-01T03:54:29.679Z,0
2016-12-01T03:55:38.712Z,0
2016-12-01T03:56:47.392Z,0
2016-12-01T03:57:56.071Z,0
2016-12-01T03:59:04.757Z,0
2016-12-01T04:00:13.437Z,0
2016-12-01T04:01:22.120Z,0
2016-12-01T04:02:30.799Z,0
2016-12-01T04:03:39.491Z,0
2016-12-01T04:04:48.183Z,0
2016-12-01T04:05:56.863Z,0
2016-12-01T04:07:05.545Z,0
2016-12-01T04:08:14.228Z,0
2016-12-01T04:09:22.910Z,0
2016-12-01T04:10:31.591Z,0
2016-12-01T04:11:40.285Z,0
2016-12-01T04:12:48.965Z,0
2016-12-01T04:13:57.644Z,0
2016-12-01T04:15:06.332Z,0
2016-12-01T04:16:15.041Z,0
2016-12-01T04:17:23.727Z,0
2016-12-01T04:18:32.420Z,0
2016-12-01T04:19:41.100Z,0
2016-12-01T04:20:49.820Z,0
2016-12-01T04:21:58.507Z,0
2016-12-01T04:23:07.194Z,0
2016-12-01T04:24:15.876Z,0
2016-12-01T04:25:24.557Z,0
2016-12-01T04:26:33.240Z,0
2016-12-01T04:27:41.922Z,0
2016-12-01T04:28:50.602Z,0
2016-12-01T04:29:59.282Z,0
2016-12-01T04:31:07.972Z,0
2016-12-01T04:32:16.660Z,0
2016-12-01T04:33:25.338Z,0
2016-12-01T04:34:34.022Z,0
2016-12-01T04:35:42.707Z,0
2016-12-01T04:36:51.394Z,0
2016-12-01T04:38:00.076Z,0
2016-12-01T04:39:08.783Z,0
2016-12-01T04:40:17.467Z,0
2016-12-01T04:41:26.151Z,0
2016-12-01T04:42:34.833Z,0
2016-12-01T04:43:43.516Z,0
2016-12-01T04:44:52.201Z,0
2016-12-01T04:46:00.882Z,0
2016-12-01T04:47:09.568Z,0
2016-12-01T04:48:18.248Z,0
2016-12-01T04:49:26.925Z,0
2016-12-01T04:50:35.613Z,0
2016-12-01T04:51:44.611Z,0
2016-12-01T04:52:53.293Z,0
2016-12-01T04:54:01.981Z,0
2016-12-01T04:55:10.664Z,0
2016-12-01T04:56:19.344Z,0
2016-12-01T04:57:28.024Z,0
2016-12-01T04:58:36.711Z,0
2016-12-01T04:59:45.405Z,0
2016-12-01T05:00:54.091Z,0
2016-12-01T05:02:02.776Z,0
2016-12-01T05:03:11.459Z,0
2016-12-01T05:04:20.136Z,0
2016-12-01T05:05:28.817Z,0
2016-12-01T05:06:37.510Z,0
2016-12-01T05:07:46.187Z,0
2016-12-01T05:08:54.872Z,0
2016-12-01T05:10:03.556Z,0
2016-12-01T05:11:12.242Z,0
2016-12-01T05:12:20.931Z,0
2016-12-01T05:13:29.611Z,0
2016-12-01T05:14:38.292Z,0
2016-12-01T05:15:46.974Z,0
2016-12-01T05:16:55.653Z,0
2016-12-01T05:18:04.339Z,0
2016-12-01T05:19:13.022Z,0
2016-12-01T05:20:21.703Z,0
2016-12-01T05:21:30.384Z,0
2016-12-01T05:22:39.066Z,0
2016-12-01T05:23:47.749Z,0
2016-12-01T05:24:56.427Z,0
2016-12-01T05:26:05.115Z,0
2016-12-01T05:27:13.796Z,0
2016-12-01T05:28:22.484Z,0
2016-12-01T05:29:31.167Z,0
2016-12-01T05:30:39.847Z,0
2016-12-01T05:31:48.527Z,0
2016-12-01T05:32:57.227Z,0
2016-12-01T05:34:05.911Z,0
2016-12-01T05:35:14.597Z,0
2016-12-01T05:36:23.282Z,0
2016-12-01T05:37:31.964Z,0
2016-12-01T05:38:40.645Z,0
2016-12-01T05:39:49.325Z,0
2016-12-01T05:40:58.011Z,0
2016-12-01T05:42:06.690Z,0
2016-12-01T05:43:15.368Z,0
2016-12-01T05:44:24.049Z,0
2016-12-01T05:45:32.768Z,0
2016-12-01T05:46:41.450Z,0
2016-12-01T05:47:50.128Z,0
2016-12-01T05:48:58.824Z,0
2016-12-01T05:50:07.509Z,0
2016-12-01T05:51:16.196Z,0
2016-12-01T05:52:24.876Z,0
2016-12-01T05:53:33.593Z,0
2016-12-01T05:54:42.275Z,0
2016-12-01T05:55:50.958Z,0
2016-12-01T05:56:59.674Z,0
2016-12-01T05:58:08.357Z,0
2016-12-01T05:59:17.042Z,0
2016-12-01T06:00:25.726Z,0
2016-12-01T06:01:34.411Z,0
2016-12-01T06:02:43.090Z,0
2016-12-01T06:03:51.769Z,0
2016-12-01T06:05:00.457Z,0
2016-12-01T06:06:09.166Z,0
2016-12-01T06:07:17.854Z,0
2016-12-01T06:08:26.543Z,0
2016-12-01T06:09:35.222Z,0
2016-12-01T06:10:43.902Z,0
2016-12-01T06:11:52.583Z,0
2016-12-01T06:13:01.266Z,0
2016-12-01T06:14:09.942Z,0
2016-12-01T06:15:18.629Z,0
2016-12-01T06:16:27.625Z,0
2016-12-01T06:17:36.309Z,0
2016-12-01T06:18:44.990Z,0
2016-12-01T06:19:53.678Z,0
2016-12-01T06:21:02.358Z,0
2016-12-01T06:22:11.060Z,0
2016-12-01T06:23:19.749Z,0
2016-12-01T06:24:28.431Z,0
2016-12-01T06:25:37.113Z,0
2016-12-01T06:26:45.798Z,0
2016-12-01T06:27:54.477Z,0
2016-12-01T06:29:03.159Z,0
2016-12-01T06:30:11.841Z,0
2016-12-01T06:31:20.532Z,0
2016-12-01T06:32:29.213Z,0
2016-12-01T06:33:38.210Z,0
2016-12-01T06:34:46.891Z,0
2016-12-01T06:35:55.627Z,0
2016-12-01T06:37:04.327Z,0
2016-12-01T06:38:13.007Z,0
2016-12-01T06:39:21.688Z,0
2016-12-01T06:40:30.371Z,0
2016-12-01T06:41:39.054Z,0
2016-12-01T06:42:47.762Z,0
2016-12-01T06:43:56.444Z,0
2016-12-01T06:45:05.124Z,0
2016-12-01T06:46:13.805Z,0
2016-12-01T06:47:22.492Z,0
2016-12-01T06:48:31.180Z,0
2016-12-01T06:49:39.859Z,0
2016-12-01T06:50:48.539Z,0
2016-12-01T06:51:57.218Z,0
2016-12-01T06:53:05.907Z,0
2016-12-01T06:54:14.588Z,0
2016-12-01T06:55:23.269Z,0
2016-12-01T06:56:31.955Z,0
2016-12-01T06:57:40.638Z,0
2016-12-01T06:58:49.327Z,0
2016-12-01T06:59:58.028Z,0
2016-12-01T07:01:06.710Z,0
2016-12-01T07:02:15.390Z,0
2016-12-01T07:03:24.078Z,0
2016-12-01T07:04:32.764Z,0
2016-12-01T07:05:41.444Z,0
2016-12-01T07:06:50.135Z,0
2016-12-01T07:07:58.825Z,0
2016-12-01T07:09:07.501Z,0
2016-12-01T07:10:16.190Z,0
2016-12-01T07:11:24.868Z,0
2016-12-01T07:12:33.558Z,0
2016-12-01T07:13:42.249Z,0
2016-12-01T07:14:50.930Z,0
2016-12-01T07:15:59.641Z,0
2016-12-01T07:17:08.329Z,0
2016-12-01T07:18:17.009Z,0
2016-12-01T07:19:25.690Z,0
2016-12-01T07:20:34.377Z,0
2016-12-01T07:21:43.091Z,0
2016-12-01T07:22:51.781Z,0
2016-12-01T07:24:00.462Z,0
2016-12-01T07:25:09.462Z,0
2016-12-01T07:26:18.147Z,0
2016-12-01T07:27:26.831Z,0
2016-12-01T07:28:35.514Z,0
2016-12-01T07:29:44.211Z,0
2016-12-01T07:30:52.893Z,0
2016-12-01T07:32:01.574Z,0
2016-12-01T07:33:10.262Z,0
2016-12-01T07:34:18.950Z,0
2016-12-01T07:35:27.635Z,0
2016-12-01T07:36:36.318Z,0
2016-12-01T07:37:44.999Z,0
2016-12-01T07:38:53.692Z,0
2016-12-01T07:40:02.376Z,0
2016-12-01T07:41:11.061Z,0
2016-12-01T07:42:19.750Z,0
2016-12-01T07:43:28.430Z,0
2016-12-01T07:44:37.117Z,0
2016-12-01T07:45:45.806Z,0
2016-12-01T07:46:54.492Z,0
2016-12-01T07:48:03.175Z,0
2016-12-01T07:49:11.857Z,0
2016-12-01T07:50:20.535Z,5
2016-12-01T07:51:29.217Z,5
2016-12-01T07:52:37.902Z,5
2016-12-01T07:53:46.587Z,5
2016-12-01T07:54:55.270Z,5
2016-12-01T07:56:03.946Z,5
2016-12-01T07:57:12.630Z,5
2016-12-01T07:58:21.319Z,5
2016-12-01T07:59:30.312Z,5
2016-12-01T08:00:38.994Z,5
2016-12-01T08:01:47.675Z,5
2016-12-01T08:02:56.360Z,5
2016-12-01T08:04:05.040Z,5
2016-12-01T08:05:13.752Z,5
2016-12-01T08:06:22.438Z,5
2016-12-01T08:07:31.440Z,5
2016-12-01T08:08:40.143Z,10
2016-12-01T08:09:48.827Z,10
2016-12-01T08:10:57.508Z,10
2016-12-01T08:12:06.187Z,10
2016-12-01T08:13:14.875Z,10
2016-12-01T08:14:23.563Z,10
2016-12-01T08:15:32.251Z,10
2016-12-01T08:16:40.945Z,10
2016-12-01T08:17:49.955Z,10
2016-12-01T08:18:58.640Z,10
2016-12-01T08:20:07.321Z,10
2016-12-01T08:21:16.029Z,10
2016-12-01T08:22:24.709Z,10
2016-12-01T08:23:33.393Z,10
2016-12-01T08:24:42.080Z,10
2016-12-01T08:25:50.763Z,10
2016-12-01T08:26:59.448Z,15
2016-12-01T08:28:08.134Z,15
2016-12-01T08:29:16.815Z,15
2016-12-01T08:30:25.511Z,15
2016-12-01T08:31:34.192Z,15
2016-12-01T08:32:42.878Z,15
2016-12-01T08:33:51.569Z,15
2016-12-01T08:35:00.271Z,20
2016-12-01T08:36:08.952Z,20
2016-12-01T08:37:17.636Z,20
2016-12-01T08:38:26.321Z,25
2016-12-01T08:39:35.009Z,25
2016-12-01T08:40:43.690Z,25
2016-12-01T08:41:52.378Z,25
2016-12-01T08:43:01.059Z,25
2016-12-01T08:44:09.737Z,25
2016-12-01T08:45:18.414Z,30
2016-12-01T08:46:27.108Z,30
2016-12-01T08:47:35.813Z,30
2016-12-01T08:48:44.493Z,30
2016-12-01T08:49:53.176Z,30
2016-12-01T08:51:01.860Z,30
2016-12-01T08:52:10.549Z,30
2016-12-01T08:53:19.231Z,25
2016-12-01T08:54:27.910Z,25
2016-12-01T08:55:36.595Z,25
2016-12-01T08:56:45.281Z,25
2016-12-01T08:57:53.966Z,30
2016-12-01T08:59:02.653Z,30
2016-12-01T09:00:11.339Z,35
2016-12-01T09:01:20.347Z,35
2016-12-01T09:02:29.031Z,35
2016-12-01T09:03:37.715Z,40
2016-12-01T09:04:46.400Z,50
2016-12-01T09:05:55.090Z,55
2016-12-01T09:07:03.779Z,55
2016-12-01T09:08:12.464Z,55
2016-12-01T09:09:21.147Z,55
2016-12-01T09:10:29.832Z,55
2016-12-01T09:11:38.518Z,50
2016-12-01T09:12:47.207Z,50
2016-12-01T09:13:55.893Z,55
2016-12-01T09:15:04.584Z,55
2016-12-01T09:16:13.274Z,55
2016-12-01T09:17:21.956Z,55
2016-12-01T09:18:30.642Z,55
2016-12-01T09:19:39.335Z,55
2016-12-01T09:20:48.023Z,55
2016-12-01T09:21:56.710Z,55
2016-12-01T09:23:05.394Z,55
2016-12-01T09:24:14.078Z,50
2016-12-01T09:25:22.768Z,55
2016-12-01T09:26:31.456Z,55
2016-12-01T09:27:40.142Z,55
2016-12-01T09:28:48.847Z,55
2016-12-01T09:29:57.532Z,55
2016-12-01T09:31:06.216Z,55
2016-12-01T09:32:15.220Z,55
2016-12-01T09:33:23.903Z,60
2016-12-01T09:34:32.583Z,65
2016-12-01T09:35:41.285Z,70
2016-12-01T09:36:49.975Z,70
2016-12-01T09:37:58.666Z,75
2016-12-01T09:39:07.352Z,75
2016-12-01T09:40:16.068Z,75
2016-12-01T09:41:24.752Z,80
2016-12-01T09:42:33.432Z,85
2016-12-01T09:43:42.119Z,85
2016-12-01T09:44:50.803Z,95
2016-12-01T09:45:59.492Z,100
2016-12-01T09:47:08.214Z,105
2016-12-01T09:48:16.903Z,100
2016-12-01T09:49:25.585Z,110
2016-12-01T09:50:34.273Z,110
2016-12-01T09:51:42.957Z,110
2016-12-01T09:52:51.639Z,115
2016-12-01T09:54:00.321Z,115
2016-12-01T09:55:09.009Z,115
2016-12-01T09:56:17.687Z,110
2016-12-01T09:57:26.368Z,105
2016-12-01T09:58:35.050Z,100
2016-12-01T09:59:43.736Z,95
2016-12-01T10:00:52.423Z,95
2016-12-01T10:02:01.111Z,100
2016-12-01T10:03:09.795Z,100
2016-12-01T10:04:18.482Z,110
2016-12-01T10:05:27.168Z,110
2016-12-01T10:06:35.853Z,110
2016-12-01T10:07:44.541Z,115
2016-12-01T10:08:53.222Z,115
2016-12-01T10:10:01.907Z,120
2016-12-01T10:11:10.598Z,125
2016-12-01T10:12:19.294Z,130
2016-12-01T10:13:27.978Z,135
2016-12-01T10:14:36.674Z,145
2016-12-01T10:15:45.359Z,140
2016-12-01T10:16:54.074Z,155
2016-12-01T10:18:02.761Z,155
2016-12-01T10:19:11.448Z,155
2016-12-01T10:20:20.134Z,160
2016-12-01T10:21:28.841Z,160
2016-12-01T10:22:37.527Z,160
2016-12-01T10:23:46.220Z,155
2016-12-01T10:24:55.227Z,155
2016-12-01T10:26:03.910Z,200
2016-12-01T10:27:12.589Z,350
2016-12-01T10:28:21.273Z,435
2016-12-01T10:29:29.959Z,455
2016-12-01T10:30:38.646Z,475
2016-12-01T10:31:47.410Z,430
2016-12-01T10:32:56.100Z,375
2016-12-01T10:34:04.786Z,340
2016-12-01T10:35:13.473Z,320
2016-12-01T10:36:22.157Z,300
2016-12-01T10:37:30.849Z,285
2016-12-01T10:38:39.530Z,270
2016-12-01T10:39:48.219Z,260
2016-12-01T10:40:56.932Z,260
2016-12-01T10:42:05.668Z,260
2016-12-01T10:43:14.356Z,260
2016-12-01T10:44:23.041Z,250
2016-12-01T10:45:31.732Z,165
2016-12-01T10:46:40.421Z,165
2016-12-01T10:47:49.109Z,225
2016-12-01T10:48:57.791Z,260
2016-12-01T10:50:06.482Z,230
2016-12-01T10:51:15.175Z,260
2016-12-01T10:52:23.875Z,230
2016-12-01T10:53:32.564Z,235
2016-12-01T10:54:41.249Z,265
2016-12-01T10:55:49.936Z,270
2016-12-01T10:56:58.631Z,260
2016-12-01T10:58:07.327Z,300
2016-12-01T10:59:16.018Z,315
2016-12-01T11:00:24.700Z,330
2016-12-01T11:01:33.414Z,345
2016-12-01T11:02:42.104Z,355
2016-12-01T11:03:50.792Z,360
2016-12-01T11:04:59.511Z,260
2016-12-01T11:06:08.202Z,265
2016-12-01T11:07:16.895Z,215
2016-12-01T11:08:25.579Z,195
2016-12-01T11:09:34.274Z,195
2016-12-01T11:10:42.965Z,205
2016-12-01T11:11:51.657Z,175
2016-12-01T11:13:00.359Z,160
2016-12-01T11:14:09.050Z,145
2016-12-01T11:15:18.066Z,140
2016-12-01T11:16:26.752Z,140
2016-12-01T11:17:35.439Z,140
2016-12-01T11:18:44.130Z,135
2016-12-01T11:19:52.865Z,135
2016-12-01T11:21:01.555Z,140
2016-12-01T11:22:10.243Z,140
2016-12-01T11:23:18.939Z,140
2016-12-01T11:24:27.629Z,125
2016-12-01T11:25:36.312Z,105
2016-12-01T11:26:44.999Z,90
2016-12-01T11:27:53.784Z,85
2016-12-01T11:29:02.471Z,80
2016-12-01T11:30:11.167Z,75
2016-12-01T11:31:19.856Z,75
2016-12-01T11:32:28.546Z,75
2016-12-01T11:35:25.044Z,90
2016-12-01T11:36:33.743Z,90
2016-12-01T11:37:42.752Z,90
2016-12-01T11:38:51.435Z,90
2016-12-01T11:40:00.169Z,95
2016-12-01T11:41:08.859Z,105
2016-12-01T11:42:17.546Z,105
2016-12-01T11:43:26.543Z,105
2016-12-01T11:44:35.230Z,105
2016-12-01T11:45:43.963Z,100
2016-12-01T11:46:52.968Z,95
2016-12-01T11:48:01.653Z,90
2016-12-01T11:49:10.349Z,90
2016-12-01T11:50:19.354Z,95
2016-12-01T11:51:28.093Z,100
2016-12-01T11:52:36.773Z,100
2016-12-01T11:53:45.459Z,105
2016-12-01T11:54:54.139Z,125
2016-12-01T11:56:02.825Z,140
2016-12-01T11:57:11.560Z,145
2016-12-01T11:58:20.243Z,145
2016-12-01T11:59:28.927Z,140
2016-12-01T12:00:37.615Z,135
2016-12-01T12:01:46.305Z,125
2016-12-01T12:02:55.089Z,120
2016-12-01T12:04:03.779Z,120
2016-12-01T12:05:12.465Z,125
2016-12-01T12:06:21.258Z,130
2016-12-01T12:07:29.957Z,130
2016-12-01T12:08:38.694Z,130
2016-12-01T12:09:47.378Z,125
2016-12-01T12:10:56.065Z,110
2016-12-01T12:12:04.756Z,105
2016-12-01T12:13:13.445Z,100
2016-12-01T12:14:22.134Z,100
2016-12-01T12:15:30.820Z,105
2016-12-01T12:16:39.504Z,100
2016-12-01T12:17:48.194Z,95
2016-12-01T12:18:56.918Z,85
2016-12-01T12:20:05.605Z,80
2016-12-01T12:21:14.289Z,70
2016-12-01T12:22:22.978Z,70
2016-12-01T12:23:31.655Z,65
2016-12-01T12:24:40.345Z,65
2016-12-01T12:25:49.029Z,70
2016-12-01T12:26:57.739Z,65
2016-12-01T12:28:06.433Z,70
2016-12-01T12:29:15.117Z,75
2016-12-01T12:30:23.804Z,80
2016-12-01T12:31:32.492Z,85
2016-12-01T12:32:41.181Z,90
2016-12-01T12:33:49.858Z,90
2016-12-01T12:34:58.539Z,85
2016-12-01T12:36:07.225Z,80
2016-12-01T12:37:15.909Z,80
2016-12-01T12:38:24.591Z,75
2016-12-01T12:39:33.277Z,75
2016-12-01T12:40:41.958Z,75
2016-12-01T12:41:50.640Z,70
2016-12-01T12:42:59.343Z,65
2016-12-01T12:44:08.029Z,60
2016-12-01T12:45:16.710Z,60
2016-12-01T12:46:25.418Z,60
2016-12-01T12:47:34.111Z,60
2016-12-01T12:48:42.793Z,60
2016-12-01T12:49:51.484Z,55
2016-12-01T12:51:00.171Z,55
2016-12-01T12:52:08.850Z,55
2016-12-01T12:53:17.533Z,55
2016-12-01T12:54:26.212Z,55
2016-12-01T12:55:34.897Z,55
2016-12-01T12:56:43.582Z,50
2016-12-01T12:57:52.271Z,50
2016-12-01T12:59:00.957Z,50
2016-12-01T13:00:09.642Z,50
2016-12-01T13:01:18.331Z,55
2016-12-01T13:02:27.013Z,55
2016-12-01T13:03:35.698Z,55
2016-12-01T13:04:44.409Z,60
2016-12-01T13:05:53.421Z,60
2016-12-01T13:07:02.103Z,60
2016-12-01T13:08:10.785Z,60
2016-12-01T13:09:19.466Z,60
2016-12-01T13:10:28.147Z,65
2016-12-01T13:11:36.833Z,65
2016-12-01T13:12:45.518Z,65
2016-12-01T13:13:54.220Z,65
2016-12-01T13:15:02.927Z,65
2016-12-01T13:16:11.613Z,60
2016-12-01T13:17:20.308Z,55
2016-12-01T13:18:29.313Z,50
2016-12-01T13:19:37.996Z,50
2016-12-01T13:20:46.688Z,50
2016-12-01T13:21:55.370Z,50
2016-12-01T13:23:04.055Z,50
2016-12-01T13:24:12.735Z,50
2016-12-01T13:25:21.419Z,50
2016-12-01T13:26:30.140Z,45
2016-12-01T13:27:38.827Z,45
2016-12-01T13:28:47.507Z,45
2016-12-01T13:29:56.223Z,50
2016-12-01T13:31:04.902Z,50
2016-12-01T13:32:13.586Z,50
2016-12-01T13:33:22.274Z,50
2016-12-01T13:34:30.991Z,45
2016-12-01T13:35:39.670Z,45
2016-12-01T13:36:48.352Z,45
2016-12-01T13:37:57.041Z,40
2016-12-01T13:39:05.724Z,45
2016-12-01T13:40:14.431Z,45
2016-12-01T13:41:23.120Z,45
2016-12-01T13:42:31.803Z,45
2016-12-01T13:43:40.483Z,45
2016-12-01T13:44:49.162Z,45
2016-12-01T13:45:57.842Z,40
2016-12-01T13:47:06.524Z,35
2016-12-01T13:48:15.213Z,35
2016-12-01T13:49:23.896Z,30
2016-12-01T13:50:32.577Z,30
2016-12-01T13:51:41.254Z,30
2016-12-01T13:52:49.933Z,30
2016-12-01T13:53:58.634Z,30
2016-12-01T13:55:07.320Z,30
2016-12-01T13:56:16.003Z,25
2016-12-01T13:57:26.767Z,25
2016-12-01T13:58:35.450Z,25
2016-12-01T13:59:44.157Z,25
2016-12-01T14:00:52.838Z,25
2016-12-01T14:02:01.522Z,20
2016-12-01T14:03:10.200Z,20
2016-12-01T14:04:18.883Z,20
2016-12-01T14:05:27.569Z,20
2016-12-01T14:06:36.252Z,20
2016-12-01T14:07:44.941Z,20
2016-12-01T14:08:53.627Z,15
2016-12-01T14:10:02.304Z,15
2016-12-01T14:11:10.995Z,15
2016-12-01T14:12:19.705Z,15
2016-12-01T14:13:28.400Z,15
2016-12-01T14:14:37.080Z,10
2016-12-01T14:15:45.761Z,10
2016-12-01T14:16:54.444Z,10
2016-12-01T14:18:03.132Z,10
2016-12-01T14:19:11.816Z,10
2016-12-01T14:20:20.501Z,10
2016-12-01T14:21:29.181Z,5
2016-12-01T14:22:37.868Z,5
2016-12-01T14:23:46.552Z,5
2016-12-01T14:24:55.234Z,5
2016-12-01T14:26:03.916Z,5
2016-12-01T14:27:12.603Z,5
2016-12-01T14:28:21.286Z,5
2016-12-01T14:29:29.965Z,5
2016-12-01T14:30:38.657Z,5
2016-12-01T14:31:47.338Z,5
2016-12-01T14:32:56.022Z,0
2016-12-01T14:34:04.714Z,0
2016-12-01T14:35:13.403Z,0
2016-12-01T14:36:22.398Z,0
2016-12-01T14:37:31.081Z,0
2016-12-01T14:38:39.758Z,0
2016-12-01T14:39:48.445Z,0
2016-12-01T14:40:57.127Z,0
2016-12-01T14:42:05.805Z,0
2016-12-01T14:43:14.498Z,0
2016-12-01T14:44:23.185Z,0
2016-12-01T14:45:31.872Z,0
2016-12-01T14:46:40.867Z,0
2016-12-01T14:47:49.553Z,0
2016-12-01T14:48:58.239Z,0
2016-12-01T14:50:06.956Z,0
2016-12-01T14:51:15.646Z,0
2016-12-01T14:52:24.392Z,0
2016-12-01T14:53:33.087Z,0
2016-12-01T14:54:41.768Z,0
2016-12-01T14:55:50.451Z,0
2016-12-01T14:56:59.135Z,0
2016-12-01T14:58:07.821Z,0
2016-12-01T14:59:16.502Z,0
2016-12-01T15:00:25.190Z,0
2016-12-01T15:01:33.889Z,0
2016-12-01T15:02:42.574Z,0
2016-12-01T15:03:51.268Z,0
2016-12-01T15:04:59.957Z,0
2016-12-01T15:06:08.960Z,0
2016-12-01T15:07:17.643Z,0
2016-12-01T15:08:26.326Z,0
2016-12-01T15:09:35.008Z,0
2016-12-01T15:10:43.689Z,0
2016-12-01T15:11:52.365Z,0
2016-12-01T15:13:01.059Z,0
2016-12-01T15:14:09.743Z,0
2016-12-01T15:15:18.425Z,0
2016-12-01T15:16:27.105Z,0
2016-12-01T15:17:36.113Z,0
2016-12-01T15:18:44.794Z,0
2016-12-01T15:19:53.478Z,0
2016-12-01T15:21:02.164Z,0
2016-12-01T15:22:10.844Z,0
2016-12-01T15:23:19.701Z,0
2016-12-01T15:24:28.382Z,0
2016-12-01T15:25:37.086Z,0
2016-12-01T15:26:45.794Z,0
2016-12-01T15:27:54.479Z,0
2016-12-01T15:29:03.171Z,0
2016-12-01T15:30:11.858Z,0
2016-12-01T15:31:20.536Z,0
2016-12-01T15:32:29.222Z,0
2016-12-01T15:33:37.905Z,0
2016-12-01T15:34:46.600Z,0
2016-12-01T15:35:55.294Z,0
2016-12-01T15:37:03.986Z,0
2016-12-01T15:38:12.670Z,0
2016-12-01T15:39:21.351Z,0
2016-12-01T15:40:30.035Z,0
2016-12-01T15:41:38.713Z,0
2016-12-01T15:42:47.704Z,0
2016-12-01T15:43:56.392Z,0
2016-12-01T15:45:05.076Z,0
2016-12-01T15:46:13.785Z,0
2016-12-01T15:47:22.472Z,0
2016-12-01T15:48:31.151Z,0
2016-12-01T15:49:39.835Z,0
2016-12-01T15:50:48.520Z,0
2016-12-01T15:51:57.209Z,0
2016-12-01T15:53:05.890Z,0
2016-12-01T15:54:14.575Z,0
2016-12-01T15:55:23.258Z,0
2016-12-01T15:56:31.938Z,0
2016-12-01T15:57:40.622Z,0
2016-12-01T15:58:49.304Z,0
2016-12-01T15:59:57.988Z,0
2016-12-01T16:01:06.693Z,0
2016-12-01T16:02:15.381Z,0
2016-12-01T16:03:24.066Z,0
2016-12-01T16:04:32.753Z,0
2016-12-01T16:05:41.441Z,0
2016-12-01T16:06:50.129Z,0
2016-12-01T16:07:58.815Z,0
2016-12-01T16:09:07.498Z,0
2016-12-01T16:10:16.496Z,0
2016-12-01T16:11:25.176Z,0
2016-12-01T16:12:33.857Z,0
2016-12-01T16:13:42.541Z,0
2016-12-01T16:14:51.228Z,0
2016-12-01T16:15:59.908Z,0
2016-12-01T16:17:08.661Z,0
2016-12-01T16:18:17.342Z,0
2016-12-01T16:19:26.018Z,0
2016-12-01T16:20:34.704Z,0
2016-12-01T16:21:43.389Z,0
2016-12-01T16:22:52.069Z,0
2016-12-01T16:24:00.757Z,0
2016-12-01T16:25:09.440Z,0
2016-12-01T16:26:18.127Z,0
2016-12-01T16:27:26.845Z,0
2016-12-01T16:28:35.549Z,0
2016-12-01T16:29:44.232Z,0
2016-12-01T16:30:52.917Z,0
2016-12-01T16:32:01.602Z,0
2016-12-01T16:33:10.283Z,0
2016-12-01T16:34:18.964Z,0
2016-12-01T16:35:27.648Z,0
2016-12-01T16:36:36.326Z,0
2016-12-01T16:37:45.023Z,0
2016-12-01T16:38:53.704Z,0
2016-12-01T16:40:02.387Z,0